Flight Track Log - Related Links

Times and Time Zones

All times are in EDT time to prevent confusion due to time zone crossing. See the EJA930 flight status page for this flight to view local times or setup timezone preferences in your user account.

Time Position Orientation Groundspeed Altitude Reporting Facility
EDT Latitude Longitude Course Direction KTS MPH feet Rate Location/Type
Sun 05:46:31 PM 36.6667 -121.6333 270° West 169 194 1,200  Level Northern Cal TRACON
Sun 05:47:31 PM 36.6667 -121.7000 270° West 187 215 3,700 1,950 Climbing Northern Cal TRACON
Sun 05:48:31 PM 36.6333 -121.7333 219° Southwest 231 266 5,100 1,650 Climbing Northern Cal TRACON
Sun 05:49:31 PM 36.5833 -121.6833 141° Southeast 263 303 7,000 1,983 Climbing Northern Cal TRACON
Sun 05:50:32 PM 36.5833 -121.5833 90° East 305 351 9,100 1,762 Climbing Northern Cal TRACON
Sun 05:51:37 PM 36.6000 -121.4500 81° East 341 392 10,700 1,577 Climbing Northern Cal TRACON
Sun 05:52:49 PM 36.6189 -121.3281 79° East 334 384 12,700 1,759 Climbing Oakland Center
Sun 05:53:50 PM 36.6414 -121.2000 78° East 361 415 14,600 1,854 Climbing Oakland Center
Sun 05:54:52 PM 36.6653 -121.0706 77° East 374 430 16,500 1,854 Climbing Oakland Center
Sun 05:55:53 PM 36.6867 -120.9431 78° East 378 435 18,400 1,854 Climbing Oakland Center
Sun 05:56:55 PM 36.7097 -120.8125 78° East 381 438 20,300 1,561 Climbing Oakland Center
Sun 05:57:56 PM 36.7553 -120.6608 69° East 389 448 21,600 1,122 Climbing Oakland Center
Sun 05:58:58 PM 36.8011 -120.5247 67° East 418 481 22,600 976 Climbing Oakland Center
Sun 05:59:59 PM 36.8447 -120.3906 68° East 445 512 23,600 1,073 Climbing Oakland Center
Sun 06:01:01 PM 36.9031 -120.2111 68° East 463 533 24,800 829 Climbing Oakland Center
Sun 06:02:02 PM 36.9489 -120.0706 68° East 475 547 25,300 780 Climbing Oakland Center
Sun 06:03:04 PM 37.0006 -119.9122 68° East 488 562 26,400 1,065 Climbing Oakland Center
Sun 06:04:06 PM 37.0519 -119.7539 68° East 491 565 27,500 1,073 Climbing Oakland Center
Sun 06:05:07 PM 37.1053 -119.5956 67° East 494 568 28,600 1,180 Climbing Oakland Center
Sun 06:06:08 PM 37.1919 -119.4200 58° Northeast 496 571 29,900 1,122 Climbing Oakland Center
Sun 06:07:10 PM 37.2647 -119.2739 58° Northeast 498 573 30,900 1,024 Climbing Oakland Center
Sun 06:08:11 PM 37.3378 -119.1286 58° Northeast 495 570 32,000 1,415 Climbing Oakland Center
Sun 06:09:13 PM 37.4111 -118.9808 58° Northeast 497 572 33,800 1,756 Climbing Oakland Center
Sun 06:10:14 PM 37.4819 -118.8386 58° Northeast 485 558 35,600 1,512 Climbing Oakland Center
Sun 06:11:16 PM 37.5508 -118.7006 58° Northeast 488 562 36,900 1,122 Climbing Oakland Center
Sun 06:12:17 PM 37.6239 -118.5536 58° Northeast 495 570 37,900 1,073 Climbing Oakland Center
Sun 06:13:19 PM 37.7031 -118.3664 62° Northeast 504 580 39,100 1,171 Climbing Oakland Center
Sun 06:14:20 PM 37.7572 -118.2042 67° East 505 581 40,300 1,171 Climbing Oakland Center
Sun 06:15:22 PM 37.8133 -118.0469 66° East 494 568 41,500 1,073 Climbing Oakland Center
Sun 06:16:23 PM 37.8667 -117.8906 67° East 486 559 42,500 732 Climbing Oakland Center
Sun 06:17:25 PM 37.9189 -117.7383 66° East 475 547 43,000 244 Climbing Oakland Center
Sun 06:18:26 PM 37.9717 -117.5831 67° East 479 551 43,000  Level Oakland Center
Sun 06:19:28 PM 38.0256 -117.4219 67° East 492 566 43,000  Level Oakland Center
Sun 06:20:29 PM 38.0836 -117.2486 67° East 501 577 43,000  Level Oakland Center
Sun 06:21:31 PM 38.1439 -117.0692 67° East 514 592 43,000  Level Oakland Center
Sun 06:22:32 PM 38.2000 -116.9025 67° East 516 594 43,000  Level Oakland Center
Sun 06:23:33 PM 38.2561 -116.7322 67° East 521 600 43,000  Level Oakland Center
Sun 06:24:35 PM 38.3119 -116.5611 67° East 524 603 43,000  Level Oakland Center
Sun 06:25:36 PM 38.3683 -116.3894 67° East 526 605 43,000  Level Oakland Center
Sun 06:26:38 PM 38.4347 -116.1819 68° East 528 608 43,000  Level Oakland Center
Sun 06:27:39 PM 38.4919 -116.0072 67° East 533 613 43,000  Level Oakland Center
Sun 06:29:09 PM 38.5697 -115.7628 68° East 532 612 43,000  Level Salt Lake Center
Sun 06:30:11 PM 38.6250 -115.5875 68° East 533 613 43,000  Level Salt Lake Center
Sun 06:31:12 PM 38.6811 -115.4122 68° East 533 613 43,000  Level Salt Lake Center
Sun 06:32:14 PM 38.7411 -115.2192 68° East 534 615 43,000  Level Salt Lake Center
Sun 06:33:16 PM 38.7969 -115.0408 68° East 536 617 43,000  Level Salt Lake Center
Sun 06:34:18 PM 38.8522 -114.8642 68° East 536 617 43,000  Level Salt Lake Center
Sun 06:35:19 PM 38.9061 -114.6886 68° East 530 610 43,000  Level Salt Lake Center
Sun 06:36:21 PM 38.9714 -114.4756 68° East 535 616 43,000  Level Salt Lake Center
Sun 06:37:23 PM 39.0253 -114.2981 69° East 534 615 43,000  Level Salt Lake Center
Sun 06:38:24 PM 39.0786 -114.1197 69° East 534 615 43,000  Level Salt Lake Center
Sun 06:39:26 PM 39.1319 -113.9419 69° East 533 613 43,000  Level Salt Lake Center
Sun 06:40:28 PM 39.1856 -113.7644 69° East 532 612 43,000  Level Salt Lake Center
Sun 06:41:29 PM 39.2369 -113.5856 70° East 532 612 43,000  Level Salt Lake Center
Sun 06:42:31 PM 39.2900 -113.4075 69° East 532 612 43,000  Level Salt Lake Center
Sun 06:43:33 PM 39.3419 -113.2278 69° East 534 615 43,000  Level Salt Lake Center
Sun 06:44:34 PM 39.4039 -113.0136 69° East 532 612 43,000  Level Salt Lake Center
Sun 06:45:36 PM 39.4553 -112.8350 70° East 531 611 43,000  Level Salt Lake Center
Sun 06:46:38 PM 39.5067 -112.6558 70° East 531 611 43,000  Level Salt Lake Center
Sun 06:47:41 PM 39.5528 -112.4911 70° East 527 606 43,000  Level Salt Lake Center
Sun 06:48:41 PM 39.6028 -112.3142 70° East 526 605 43,000  Level Salt Lake Center
Sun 06:49:43 PM 39.6617 -112.1014 70° East 524 603 43,000  Level Salt Lake Center
Sun 06:51:36 PM 39.7514 -111.7742 70° East 525 604 43,000  Level Denver Center
Sun 06:52:37 PM 39.7911 -111.6303 70° East 529 609 43,000  Level Denver Center
Sun 06:53:40 PM 39.8533 -111.4011 70° East 526 605 43,000  Level Denver Center
Sun 06:54:51 PM 39.9086 -111.1997 70° East 526 605 43,000  Level Salt Lake Center
Sun 06:55:53 PM 39.9619 -110.9981 71° East 526 605 43,000  Level Salt Lake Center
Sun 06:56:54 PM 40.0089 -110.8228 71° East 532 612 43,000  Level Salt Lake Center
Sun 06:57:56 PM 40.0633 -110.6169 71° East 536 617 43,000  Level Salt Lake Center
Sun 06:58:58 PM 40.1083 -110.4408 71° East 534 615 43,000  Level Salt Lake Center
Sun 06:59:59 PM 40.1547 -110.2631 71° East 538 619 43,000  Level Salt Lake Center
Sun 07:01:01 PM 40.2075 -110.0589 71° East 531 611 43,000  Level Salt Lake Center
Sun 07:02:03 PM 40.2528 -109.8811 71° East 536 617 43,000  Level Salt Lake Center
Sun 07:03:04 PM 40.3050 -109.6750 72° East 534 615 43,000  Level Salt Lake Center
Sun 07:04:06 PM 40.3497 -109.4956 72° East 537 618 43,000  Level Salt Lake Center
Sun 07:05:07 PM 40.3942 -109.3183 72° East 536 617 43,000  Level Salt Lake Center
Sun 07:06:09 PM 40.4464 -109.1100 72° East 536 617 43,000  Level Salt Lake Center
Sun 07:07:11 PM 40.4903 -108.9306 72° East 537 618 43,000  Level Salt Lake Center
Sun 07:08:12 PM 40.5411 -108.7194 72° East 537 618 43,000  Level Salt Lake Center
Sun 07:09:14 PM 40.5831 -108.5425 73° East 535 616 43,000  Level Salt Lake Center
Sun 07:10:08 PM 40.6275 -108.3594 72° East 536 617 43,000  Level Denver Center
Sun 07:11:10 PM 40.6697 -108.1794 73° East 537 618 43,000  Level Denver Center
Sun 07:12:12 PM 40.7206 -107.9700 72° East 537 618 43,000  Level Denver Center
Sun 07:13:13 PM 40.7619 -107.7942 73° East 538 619 43,000  Level Denver Center
Sun 07:14:15 PM 40.8089 -107.5828 74° East 542 624 43,000  Level Denver Center
Sun 07:15:17 PM 40.8511 -107.4017 73° East 540 621 43,000  Level Denver Center
Sun 07:16:19 PM 40.8994 -107.1892 73° East 542 624 43,000  Level Denver Center
Sun 07:17:21 PM 40.9414 -107.0061 73° East 544 626 43,000 49 Level Denver Center
Sun 07:18:22 PM 40.9831 -106.8236 73° East 544 626 43,100 390 Climbing Denver Center
Sun 07:19:24 PM 41.0294 -106.6133 74° East 534 615 43,800 677 Climbing Denver Center
Sun 07:20:26 PM 41.0681 -106.4358 74° East 524 603 44,500 581 Climbing Denver Center
Sun 07:21:28 PM 41.1106 -106.2331 74° East 510 587 45,000 244 Climbing Denver Center
Sun 07:22:29 PM 41.1494 -106.0625 73° East 513 590 45,000  Level Denver Center
Sun 07:23:43 PM 41.1939 -105.8561 74° East 519 597 45,000  Level Denver Center
Sun 07:24:45 PM 41.2439 -105.6192 74° East 524 603 45,000  Level Denver Center
Sun 07:25:47 PM 41.2819 -105.4411 74° East 524 603 45,000  Level Denver Center
Sun 07:26:49 PM 41.3178 -105.2594 75° East 532 612 45,000  Level Denver Center
Sun 07:27:51 PM 41.3619 -105.0492 74° East 530 610 45,000  Level Denver Center
Sun 07:28:53 PM 41.3978 -104.8661 75° East 533 613 45,000  Level Denver Center
Sun 07:29:54 PM 41.4411 -104.6594 74° East 525 604 45,000  Level Denver Center
Sun 07:30:56 PM 41.4772 -104.4789 75° East 528 608 45,000  Level Denver Center
Sun 07:31:58 PM 41.5078 -104.3289 75° East 528 608 45,000  Level Denver Center
Sun 07:33:00 PM 41.5553 -104.0833 75° East 538 619 45,000  Level Denver Center
Sun 07:34:02 PM 41.5972 -103.8694 75° East 537 618 45,000  Level Denver Center
Sun 07:35:03 PM 41.6328 -103.6864 75° East 536 617 45,000  Level Denver Center
Sun 07:36:05 PM 41.6736 -103.4731 76° East 533 613 45,000  Level Denver Center
Sun 07:37:07 PM 41.7081 -103.2917 76° East 528 608 45,000  Level Denver Center
Sun 07:38:09 PM 41.7475 -103.0783 76° East 530 610 45,000  Level Denver Center
Sun 07:39:11 PM 41.7817 -102.8953 76° East 532 612 45,000  Level Denver Center
Sun 07:40:13 PM 41.8144 -102.7125 76° East 530 610 45,000  Level Denver Center
Sun 07:41:14 PM 41.8539 -102.4975 76° East 532 612 45,000  Level Denver Center
Sun 07:42:16 PM 41.8867 -102.3144 76° East 529 609 45,000  Level Denver Center
Sun 07:43:18 PM 41.9239 -102.1044 77° East 531 611 45,000  Level Denver Center
Sun 07:44:20 PM 41.9575 -101.9189 76° East 532 612 45,000  Level Denver Center
Sun 07:45:22 PM 41.9950 -101.7031 77° East 531 611 45,000  Level Denver Center
Sun 07:46:24 PM 42.0264 -101.5175 77° East 531 611 45,000  Level Denver Center
Sun 07:47:25 PM 42.0628 -101.3014 77° East 530 610 45,000  Level Denver Center
Sun 07:48:27 PM 42.0944 -101.1158 77° East 529 609 45,000  Level Denver Center
Sun 07:49:29 PM 42.1303 -100.8975 77° East 532 612 45,000  Level Denver Center
Sun 07:50:31 PM 42.1603 -100.7100 78° East 534 615 45,000  Level Denver Center
Sun 07:51:33 PM 42.1911 -100.5242 77° East 531 611 45,000  Level Denver Center
Sun 07:52:33 PM 42.2244 -100.3122 78° East 533 613 45,000  Level Minneapolis Center
Sun 07:53:35 PM 42.2558 -100.1169 78° East 532 612 45,000  Level Minneapolis Center
Sun 07:54:37 PM 42.2867 -99.9192 78° East 535 616 45,000  Level Minneapolis Center
Sun 07:55:39 PM 42.3172 -99.7247 78° East 531 611 45,000  Level Minneapolis Center
Sun 07:56:40 PM 42.3461 -99.5283 79° East 531 611 45,000  Level Minneapolis Center
Sun 07:57:42 PM 42.3758 -99.3314 78° East 533 613 45,000  Level Minneapolis Center
Sun 07:58:44 PM 42.4117 -99.0964 78° East 531 611 45,000  Level Minneapolis Center
Sun 07:59:45 PM 42.4400 -98.9000 79° East 530 610 45,000  Level Minneapolis Center
Sun 08:00:47 PM 42.4686 -98.7028 79° East 531 611 45,000  Level Minneapolis Center
Sun 08:01:49 PM 42.4961 -98.5067 79° East 529 609 45,000  Level Minneapolis Center
Sun 08:02:50 PM 42.5242 -98.3100 79° East 531 611 45,000  Level Minneapolis Center
Sun 08:03:52 PM 42.5503 -98.1139 80° East 529 609 45,000  Level Minneapolis Center
Sun 08:04:54 PM 42.5769 -97.9161 80° East 532 612 45,000  Level Minneapolis Center
Sun 08:05:55 PM 42.6053 -97.7014 80° East 530 610 45,000  Level Minneapolis Center
Sun 08:06:57 PM 42.6308 -97.5036 80° East 531 611 45,000  Level Minneapolis Center
Sun 08:07:58 PM 42.6567 -97.3061 80° East 531 611 45,000  Level Minneapolis Center
Sun 08:09:00 PM 42.6819 -97.1114 80° East 526 605 45,000  Level Minneapolis Center
Sun 08:10:02 PM 42.7064 -96.9094 81° East 528 608 45,000  Level Minneapolis Center
Sun 08:11:03 PM 42.7311 -96.7156 80° East 524 603 45,000  Level Minneapolis Center
Sun 08:12:05 PM 42.7533 -96.5197 81° East 526 605 45,000  Level Minneapolis Center
Sun 08:13:06 PM 42.7819 -96.2822 81° East 531 611 45,000  Level Minneapolis Center
Sun 08:14:20 PM 42.8100 -96.0497 81° East 524 603 45,000  Level Minneapolis Center
Sun 08:15:22 PM 42.8328 -95.8544 81° East 525 604 45,000  Level Minneapolis Center
Sun 08:16:23 PM 42.8550 -95.6581 81° East 528 608 45,000  Level Minneapolis Center
Sun 08:17:25 PM 42.8772 -95.4592 81° East 533 613 45,000  Level Minneapolis Center
Sun 08:18:26 PM 42.8986 -95.2614 82° East 531 611 45,000  Level Minneapolis Center
Sun 08:19:28 PM 42.9239 -95.0256 82° East 527 606 45,000  Level Minneapolis Center
Sun 08:20:29 PM 42.9444 -94.8275 82° East 529 609 45,000  Level Minneapolis Center
Sun 08:21:31 PM 42.9658 -94.6311 81° East 527 606 45,000  Level Minneapolis Center
Sun 08:22:32 PM 42.9842 -94.4331 83° East 528 608 45,000  Level Minneapolis Center
Sun 08:23:34 PM 43.0028 -94.2397 82° East 522 601 45,000  Level Minneapolis Center
Sun 08:24:35 PM 43.0242 -94.0464 81° East 521 600 45,000  Level Minneapolis Center
Sun 08:25:37 PM 43.0439 -93.8531 82° East 519 597 45,000  Level Minneapolis Center
Sun 08:26:38 PM 43.0614 -93.6589 83° East 518 596 45,000  Level Minneapolis Center
Sun 08:27:40 PM 43.0839 -93.4264 82° East 518 596 45,000  Level Minneapolis Center
Sun 08:28:41 PM 43.0975 -93.2311 84° East 520 598 45,000  Level Minneapolis Center
Sun 08:29:43 PM 43.1000 -93.0394 89° East 511 588 45,000  Level Minneapolis Center
Sun 08:30:44 PM 43.1044 -92.8464 88° East 511 588 45,000  Level Minneapolis Center
Sun 08:31:46 PM 43.1094 -92.6539 88° East 510 587 45,000  Level Minneapolis Center
Sun 08:32:47 PM 43.1125 -92.4622 89° East 510 587 45,000  Level Minneapolis Center
Sun 08:33:42 PM 43.1150 -92.2697 89° East 509 586 45,000  Level Chicago Center
Sun 08:34:44 PM 43.1189 -92.0767 88° East 511 588 45,000  Level Chicago Center
Sun 08:35:46 PM 43.1219 -91.8842 89° East 508 585 45,000  Level Chicago Center
Sun 08:36:54 PM 43.1272 -91.6489 88° East 510 587 45,000  Level Minneapolis Center
Sun 08:37:55 PM 43.1286 -91.4556 89° East 508 585 45,000  Level Minneapolis Center
Sun 08:38:51 PM 43.1311 -91.2644 89° East 508 585 45,000  Level Chicago Center
Sun 08:39:53 PM 43.1331 -91.0706 89° East 509 586 45,000  Level Chicago Center
Sun 08:40:55 PM 43.1336 -90.8758 90° East 513 590 45,000  Level Chicago Center
Sun 08:41:56 PM 43.1331 -90.6819 90° East 514 592 45,000  Level Chicago Center
Sun 08:42:58 PM 43.1350 -90.4869 89° East 516 594 45,000  Level Chicago Center
Sun 08:44:00 PM 43.1339 -90.2756 90° East 516 594 45,000  Level Chicago Center
Sun 08:45:02 PM 43.1336 -90.0794 90° East 516 594 45,000  Level Chicago Center
Sun 08:46:03 PM 43.1333 -89.8822 90° East 517 595 45,000  Level Chicago Center
Sun 08:47:05 PM 43.1319 -89.6567 90° East 510 587 45,000  Level Chicago Center
Sun 08:48:07 PM 43.1303 -89.4636 91° East 508 585 45,000  Level Chicago Center
Sun 08:49:09 PM 43.1289 -89.2717 91° East 507 583 45,000  Level Chicago Center
Sun 08:50:10 PM 43.1275 -89.0808 91° East 504 580 45,000  Level Chicago Center
Sun 08:51:12 PM 43.1247 -88.8892 91° East 504 580 45,000  Level Chicago Center
Sun 08:52:14 PM 43.1222 -88.6661 91° East 507 583 45,000  Level Chicago Center
Sun 08:53:16 PM 43.1186 -88.4753 91° East 508 585 45,000  Level Chicago Center
Sun 08:54:18 PM 43.1144 -88.2842 92° East 507 583 45,000  Level Chicago Center
Sun 08:55:19 PM 43.0964 -88.0953 97° East 506 582 45,000  Level Chicago Center
Sun 08:56:21 PM 43.0758 -87.9067 98° East 505 581 45,000  Level Chicago Center
Sun 08:57:23 PM 43.0525 -87.6872 98° East 501 577 45,000  Level Chicago Center
Sun 08:58:25 PM 43.0317 -87.4994 99° East 500 575 45,000  Level Chicago Center
Sun 08:59:27 PM 43.0117 -87.3256 99° East 497 572 45,000  Level Chicago Center
Sun 09:00:31 PM 42.9906 -87.1403 99° East 495 570 45,000  Level Chicago Center
Sun 09:01:33 PM 42.9642 -86.9181 99° East 496 571 45,000  Level Chicago Center
Sun 09:02:35 PM 42.9422 -86.7322 99° East 498 573 45,000  Level Chicago Center
Sun 09:03:36 PM 42.9206 -86.5492 99° East 494 568 45,000  Level Chicago Center
Sun 09:04:38 PM 42.8978 -86.3694 100° East 486 559 45,000  Level Chicago Center
Sun 09:05:40 PM 42.8742 -86.1942 100° East 478 550 45,000  Level Chicago Center
Sun 09:06:42 PM 42.8472 -85.9800 100° East 488 562 45,000  Level Chicago Center
Sun 09:07:44 PM 42.8256 -85.8011 99° East 489 563 45,000  Level Chicago Center
Sun 09:08:46 PM 42.8036 -85.6228 99° East 486 559 45,000  Level Chicago Center
Sun 09:09:48 PM 42.7778 -85.4436 101° East 486 559 45,000  Level Chicago Center
Sun 09:10:49 PM 42.7442 -85.2678 105° East 482 555 45,000  Level Chicago Center
Sun 09:11:51 PM 42.7039 -85.0561 104° East 485 558 45,000  Level Chicago Center
Sun 09:12:53 PM 42.6706 -84.8814 104° East 481 554 45,000  Level Chicago Center
Sun 09:13:55 PM 42.6369 -84.7117 105° East 470 541 45,000  Level Chicago Center
Sun 09:14:57 PM 42.6033 -84.5414 105° East 469 540 45,000  Level Chicago Center
Sun 09:15:59 PM 42.5814 -84.3672 100° East 472 543 45,000  Level Chicago Center
Sun 09:16:47 PM 42.5658 -84.2061 97° East 461 531 45,000  Level Cleveland Center
Sun 09:17:47 PM 42.5503 -84.0275 97° East 466 536 45,000  Level Cleveland Center
Sun 09:18:47 PM 42.5367 -83.8519 96° East 466 536 45,000  Level Cleveland Center
Sun 09:19:47 PM 42.5228 -83.6739 96° East 466 536 45,000  Level Cleveland Center
Sun 09:20:47 PM 42.5108 -83.4931 95° East 466 536 45,000  Level Cleveland Center
Sun 09:21:47 PM 42.4925 -83.3147 98° East 471 542 45,000  Level Cleveland Center
Sun 09:22:47 PM 42.4753 -83.1533 98° East 477 549 45,000  Level Cleveland Center
Sun 09:23:47 PM 42.4583 -82.9753 97° East 477 549 45,000  Level Cleveland Center
Sun 09:24:47 PM 42.4411 -82.7919 97° East 482 555 45,000  Level Cleveland Center
Sun 09:25:47 PM 42.4236 -82.6139 98° East 488 562 45,000  Level Cleveland Center
Sun 09:26:47 PM 42.4058 -82.4278 97° East 488 562 45,000  Level Cleveland Center
Sun 09:27:47 PM 42.3878 -82.2475 98° East 488 562 45,000  Level Cleveland Center
Sun 09:28:47 PM 42.3714 -82.0642 97° East 488 562 45,000  Level Cleveland Center
Sun 09:29:47 PM 42.3508 -81.8839 99° East 483 556 45,000  Level Cleveland Center
Sun 09:30:47 PM 42.3319 -81.6814 97° East 488 562 45,000  Level Cleveland Center
Sun 09:31:47 PM 42.3106 -81.4956 99° East 488 562 45,000  Level Cleveland Center
Sun 09:32:47 PM 42.2933 -81.3158 97° East 493 567 45,000  Level Cleveland Center
Sun 09:33:47 PM 42.2714 -81.1275 99° East 493 567 45,000  Level Cleveland Center
Sun 09:34:47 PM 42.2533 -80.9478 98° East 493 567 45,000  Level Cleveland Center
Sun 09:35:47 PM 42.2328 -80.7656 99° East 488 562 45,000  Level Cleveland Center
Sun 09:36:47 PM 42.2100 -80.5858 100° East 485 558 45,000  Level Cleveland Center
Sun 09:37:47 PM 42.1911 -80.4178 99° East 491 565 45,000  Level Cleveland Center
Sun 09:38:47 PM 42.1700 -80.2358 99° East 491 565 45,000  Level Cleveland Center
Sun 09:39:47 PM 42.1483 -80.0539 99° East 491 565 45,000  Level Cleveland Center
Sun 09:40:47 PM 42.1264 -79.8553 98° East 485 558 45,000  Level Cleveland Center
Sun 09:41:47 PM 42.1044 -79.6708 99° East 490 564 45,000  Level Cleveland Center
Sun 09:42:47 PM 42.0819 -79.4864 99° East 490 564 45,000  Level Cleveland Center
Sun 09:43:47 PM 42.0572 -79.3081 101° East 490 564 45,000  Level Cleveland Center
Sun 09:44:47 PM 42.0342 -79.1239 100° East 490 564 45,000  Level Cleveland Center
Sun 09:45:47 PM 42.0108 -78.9428 100° East 490 564 45,000  Level Cleveland Center
Sun 09:46:47 PM 41.9872 -78.7617 100° East 490 564 45,000 -50 Level Cleveland Center
Sun 09:47:47 PM 41.9633 -78.5781 100° East 490 564 44,900 -1,250 Descending Cleveland Center
Sun 09:48:47 PM 41.9392 -78.3975 100° East 490 564 42,500 -2,450 Descending Cleveland Center
Sun 09:49:47 PM 41.9150 -78.2253 101° East 483 556 40,000 -2,250 Descending Cleveland Center
Sun 09:50:47 PM 41.8739 -78.0539 108° East 483 556 38,000 -1,340 Descending Cleveland Center
Sun 09:51:30 PM 41.8292 -77.9528 121° Southeast 484 557 37,700 -594 Descending New York Center
Sun 09:52:28 PM 41.7644 -77.8153 122° Southeast 471 542 37,000 -814 Descending New York Center
Sun 09:53:28 PM 41.6931 -77.6492 120° Southeast 492 566 36,100 -1,000 Descending New York Center
Sun 09:54:28 PM 41.6250 -77.4894 120° Southeast 499 574 35,000 -550 Descending New York Center
Sun 09:55:28 PM 41.5550 -77.3272 120° Southeast 504 580 35,000 -298 Level New York Center
Sun 09:56:29 PM 41.4933 -77.1606 116° Southeast 504 580 34,400 -1,033 Descending New York Center
Sun 09:57:30 PM 41.4653 -76.9778 102° East 493 567 32,900 -1,563 Descending New York Center
Sun 09:58:28 PM 41.4378 -76.7872 101° East 506 582 31,300 -974 Descending New York Center
Sun 09:59:27 PM 41.4100 -76.5936 101° East 518 596 31,000 -793 Descending New York Center
Sun 10:00:29 PM 41.3783 -76.3864 101° East 524 603 29,700 -2,262 Descending New York Center
Sun 10:01:29 PM 41.4161 -76.1958 75° East 515 593 26,400 -2,949 Descending New York Center
Sun 10:02:27 PM 41.4392 -76.0122 80° East 515 593 23,900 -2,695 Descending New York Center
Sun 10:03:27 PM 41.3856 -75.8561 115° Southeast 454 522 21,100 -2,550 Descending New York Center
Sun 10:04:27 PM 41.3011 -75.7308 132° Southeast 429 494 18,800 -1,537 Descending New York Center
Sun 10:05:28 PM 41.2442 -75.5997 120° Southeast 430 495 18,000 -1,350 Descending New York Center
Sun 10:06:27 PM 41.1994 -75.4669 114° Southeast 403 464 16,100 -2,400 Descending New York Center
Sun 10:07:28 PM 41.1567 -75.3400 114° Southeast 403 464 13,200 -2,777 Descending New York Center
Sun 10:08:28 PM 41.1156 -75.2161 114° Southeast 397 457 10,500 -2,479 Descending New York Center
Sun 10:09:29 PM 41.0761 -75.0978 114° Southeast 344 396 8,200 -2,118 Descending New York Center
Sun 10:10:27 PM 41.0442 -75.0022 114° Southeast 297 342 6,300 -1,119 Descending New York Center
Sun 10:11:27 PM 41.0311 -74.9025 100° East 274 315 6,000 -496 Descending New York Center
Sun 10:12:28 PM 41.0283 -74.8006 92° East 274 315 5,300 -750 Descending New York Center
Sun 10:13:27 PM 41.0297 -74.6989 89° East 274 315 4,500 -803 Descending New York Center
Sun 10:14:35 PM 41.0333 -74.5833 88° East 273 314 3,600 -689 Descending New York TRACON
Sun 10:15:29 PM 41.0333 -74.4833 90° East 284 327 3,100 -263 Descending New York TRACON
Sun 10:16:29 PM 41.0333 -74.4000 90° East 237 273 3,100  Level New York TRACON
Sun 10:17:35 PM 41.0333 -74.3000 90° East 236 272 3,100 -100 Level New York TRACON
Sun 10:18:29 PM 41.0333 -74.2333 90° East 231 266 2,900 -526 Descending New York TRACON
Sun 10:19:29 PM 41.0333 -74.1500 90° East 227 261 2,100 -400 Descending New York TRACON
Sun 10:20:29 PM 41.0000 -74.0833 124° Southeast 184 212 2,100 -50 Level New York TRACON
Sun 10:21:29 PM 40.9667 -74.0500 143° Southeast 149 171 2,000 -250 Descending New York TRACON
Sun 10:22:29 PM 40.9333 -74.0500 180° South 120 138 1,600 -500 Descending New York TRACON
Sun 10:23:29 PM 40.9000 -74.0500 180° South 125 144 1,000 -600 Descending New York TRACON
Sun 10:24:29 PM 40.8667 -74.0667 201° Southwest 121 139 400 -600 Descending New York TRACON
Sun 10:26:00 PM 40.8500 -74.0500 130° Southeast  Level FlightAware Approximate
Sun 10:33:00 PM 40.8501 -74.0608 130° Southeast  Level Estimated

Login

Don't have an account? Register now (free) for customized features, flight alerts, and more!